General Aviation Weather

Text Reports

Enter one or more of the following location identifiers separated by a space:

Zip Code, Four-Character ICAO or Three-Character IATA airport codes.

METAR - Aviation Routine Weather Report
KBKX - Brookings, South Dakota
Updated at 11:55 AM GMT on April 19, 2015 (6:55 AM CDT):
METAR KBKX 191155Z AUTO 32017KT 10SM FEW004 OVC008 11/09 A2974 RMK AO1 60002 70019 10140 20110 52007
TAF - Terminal Area Forecast
KBKX - Brookings, South Dakota
Updated at 11:55 AM GMT on April 19, 2015 (6:55 AM CDT):
No TAF is currently available for this location.
Decoded:
No decoded TAF is available.
PIREP - Pilot Weather Report
KBKX - Brookings, South Dakota
Updated at 11:55 AM GMT on April 19, 2015 (6:55 AM CDT):
No PIREP is currently available for this location.
AIRMET - Airmens Meteorological Information
KBKX - Brookings, South Dakota
Updated at 11:55 AM GMT on April 19, 2015 (6:55 AM CDT):
No AIRMET is currently available for this location.
SIGMET - Significant Meteorological Information
KBKX - Brookings, South Dakota
Updated at 11:55 AM GMT on April 19, 2015 (6:55 AM CDT):
No SIGMET is currently available for this location.
NOTAM - Notice to Airmen
KBKX - Brookings, South Dakota
Updated at 11:55 AM GMT on April 19, 2015 (6:55 AM CDT):
No NOTAM is currently available for this location.
Forecast Area
KBKX - Brookings, South Dakota
Updated at 11:55 AM GMT on April 19, 2015 (6:55 AM CDT):
No NOTAM is currently available for this location.
Aviation Weather Maps